createdAt,value
2023-04-05T00:01:53.636Z,8.23
2023-04-05T00:04:15.176Z,7.53
2023-04-05T00:06:37.839Z,10.03
2023-04-05T00:09:01.070Z,7.33
2023-04-05T00:11:23.032Z,6.63
2023-04-05T00:13:44.479Z,8.10
2023-04-05T00:16:06.732Z,9.30
2023-04-05T00:18:28.301Z,7.77
2023-04-05T00:20:51.128Z,7.03
2023-04-05T00:23:12.565Z,7.17
2023-04-05T00:25:34.045Z,6.03
2023-04-05T00:27:55.482Z,8.30
2023-04-05T00:30:23.630Z,6.87
2023-04-05T00:32:48.056Z,7.07
2023-04-05T00:35:09.720Z,7.27
2023-04-05T00:37:31.815Z,6.57
2023-04-05T00:39:53.912Z,8.63
2023-04-05T00:42:15.412Z,7.73
2023-04-05T00:44:37.156Z,6.87
2023-04-05T00:46:58.586Z,5.80
2023-04-05T00:49:20.350Z,6.33
2023-04-05T00:51:42.288Z,5.80
2023-04-05T00:54:04.101Z,6.10
2023-04-05T00:56:25.797Z,8.97
2023-04-05T00:58:48.654Z,7.73
2023-04-05T01:01:18.761Z,9.30
2023-04-05T01:03:45.362Z,8.30
2023-04-05T01:06:44.334Z,5.77
2023-04-05T01:09:13.320Z,6.87
2023-04-05T01:11:37.884Z,7.00
2023-04-05T01:14:02.577Z,5.30
2023-04-05T01:16:24.080Z,6.57
2023-04-05T01:18:47.304Z,11.77
2023-04-05T01:21:34.083Z,8.33
2023-04-05T01:24:12.958Z,8.53
2023-04-05T01:27:06.672Z,7.00
2023-04-05T01:29:34.297Z,5.53
2023-04-05T01:32:27.061Z,6.93
2023-04-05T01:34:51.524Z,5.97
2023-04-05T01:37:18.312Z,7.80
2023-04-05T01:39:41.265Z,6.97
2023-04-05T01:42:03.557Z,7.43
2023-04-05T01:44:25.103Z,9.00
2023-04-05T01:46:46.565Z,5.87
2023-04-05T01:49:08.334Z,9.00
2023-04-05T01:51:30.358Z,8.03
2023-04-05T01:53:52.635Z,6.67
2023-04-05T01:56:14.122Z,6.90
2023-04-05T01:58:35.866Z,7.03
2023-04-05T02:00:57.704Z,6.73
2023-04-05T02:03:19.194Z,8.97
2023-04-05T02:05:42.069Z,6.97
2023-04-05T02:08:03.536Z,7.00
2023-04-05T02:10:25.220Z,7.80
2023-04-05T02:12:46.668Z,9.80
2023-04-05T02:15:08.735Z,7.90
2023-04-05T02:17:39.408Z,8.30
2023-04-05T02:20:06.238Z,12.80
2023-04-05T02:22:28.384Z,8.50
2023-04-05T02:24:49.833Z,8.10
2023-04-05T02:27:11.355Z,9.27
2023-04-05T02:29:32.916Z,11.40
2023-04-05T02:31:54.553Z,9.23
2023-04-05T02:34:16.137Z,9.17
2023-04-05T02:36:37.557Z,7.37
2023-04-05T02:38:58.990Z,6.77
2023-04-05T02:41:22.159Z,7.77
2023-04-05T02:43:43.607Z,7.43
2023-04-05T02:46:05.268Z,6.30
2023-04-05T02:48:26.776Z,7.27
2023-04-05T02:50:49.970Z,7.73
2023-04-05T02:53:11.386Z,6.10
2023-04-05T02:55:34.162Z,7.10
2023-04-05T02:58:00.707Z,8.03
2023-04-05T03:00:22.398Z,6.60
2023-04-05T03:02:43.937Z,5.20
2023-04-05T03:05:06.185Z,8.20
2023-04-05T03:07:27.892Z,6.57
2023-04-05T03:09:51.358Z,5.83
2023-04-05T03:12:12.924Z,8.50
2023-04-05T03:14:34.835Z,6.70
2023-04-05T03:16:56.735Z,10.00
2023-04-05T03:19:22.391Z,6.77
2023-04-05T03:21:45.415Z,6.20
2023-04-05T03:24:07.383Z,6.30
2023-04-05T03:26:28.905Z,6.73
2023-04-05T03:28:50.580Z,6.97
2023-04-05T03:31:12.339Z,5.23
2023-04-05T03:33:33.792Z,5.93
2023-04-05T03:35:55.433Z,5.43
2023-04-05T03:38:17.512Z,7.97
2023-04-05T03:40:39.778Z,4.93
2023-04-05T03:43:01.247Z,5.70
2023-04-05T03:45:24.534Z,5.27
2023-04-05T03:47:46.310Z,11.93
2023-04-05T03:50:08.740Z,19.13
2023-04-05T03:52:30.281Z,20.83
2023-04-05T03:54:52.446Z,7.67
2023-04-05T03:57:13.945Z,15.67
2023-04-05T03:59:35.729Z,8.67
2023-04-05T04:01:57.189Z,8.37
2023-04-05T04:04:18.657Z,7.03
2023-04-05T04:06:40.190Z,7.87
2023-04-05T04:09:01.609Z,11.00
2023-04-05T04:11:23.140Z,7.47
2023-04-05T04:13:44.642Z,7.83
2023-04-05T04:16:06.321Z,8.87
2023-04-05T04:18:27.835Z,9.03
2023-04-05T04:20:49.309Z,9.20
2023-04-05T04:23:10.802Z,13.07
2023-04-05T04:25:32.351Z,24.00
2023-04-05T04:27:54.262Z,19.90
2023-04-05T04:30:16.292Z,18.27
2023-04-05T04:32:51.889Z,17.03
2023-04-05T04:35:20.910Z,14.07
2023-04-05T04:37:46.654Z,13.60
2023-04-05T04:40:08.935Z,10.50
2023-04-05T04:42:38.661Z,19.57
2023-04-05T04:45:04.325Z,16.93
2023-04-05T04:47:26.497Z,12.90
2023-04-05T04:49:47.972Z,11.33
2023-04-05T04:52:09.514Z,12.00
2023-04-05T04:54:34.076Z,10.30
2023-04-05T04:56:56.202Z,15.23
2023-04-05T04:59:17.727Z,9.57
2023-04-05T05:01:40.715Z,10.30
2023-04-05T05:04:04.128Z,8.73
2023-04-05T05:06:27.272Z,8.87
2023-04-05T05:08:49.125Z,9.43
2023-04-05T05:11:10.739Z,9.87
2023-04-05T05:13:32.271Z,8.13
2023-04-05T05:15:53.809Z,13.77
2023-04-05T05:18:16.183Z,17.23
2023-04-05T05:20:37.886Z,22.97
2023-04-05T05:23:01.372Z,12.87
2023-04-05T05:25:22.945Z,6.53
2023-04-05T05:27:44.397Z,8.07
2023-04-05T05:30:06.449Z,9.43
2023-04-05T05:32:28.215Z,7.83
2023-04-05T05:34:49.791Z,10.37
2023-04-05T05:37:12.820Z,16.37
2023-04-05T05:39:34.270Z,11.63
2023-04-05T05:41:55.827Z,10.27
2023-04-05T05:44:17.386Z,9.80
2023-04-05T05:46:39.257Z,9.83
2023-04-05T05:49:00.950Z,10.60
2023-04-05T05:51:22.439Z,10.03
2023-04-05T05:53:44.835Z,9.67
2023-04-05T05:56:06.666Z,10.53
2023-04-05T05:58:28.251Z,9.50
2023-04-05T06:00:52.720Z,10.17
2023-04-05T06:03:14.239Z,8.80
2023-04-05T06:05:35.961Z,7.60
2023-04-05T06:07:57.481Z,10.50
2023-04-05T06:10:19.762Z,9.33
2023-04-05T06:12:41.238Z,11.03
2023-04-05T06:15:02.785Z,9.93
2023-04-05T06:17:24.423Z,10.13
2023-04-05T06:19:46.051Z,8.77
2023-04-05T06:22:07.507Z,10.07
2023-04-05T06:24:31.932Z,9.07
2023-04-05T06:26:54.186Z,9.80
2023-04-05T06:29:15.667Z,11.37
2023-04-05T06:31:37.800Z,14.97
2023-04-05T06:33:59.680Z,11.63
2023-04-05T06:36:21.197Z,13.07
2023-04-05T06:38:42.883Z,13.23
2023-04-05T06:41:04.900Z,19.27
2023-04-05T06:43:26.338Z,18.10
2023-04-05T06:45:47.892Z,9.40
2023-04-05T06:48:09.460Z,9.13
2023-04-05T06:50:31.159Z,9.53
2023-04-05T06:52:52.604Z,12.80
2023-04-05T06:55:14.351Z,12.63
2023-04-05T06:57:35.856Z,10.77
2023-04-05T06:59:57.435Z,13.33
2023-04-05T07:02:19.480Z,11.97
2023-04-05T07:04:41.345Z,13.23
2023-04-05T07:07:04.155Z,13.63
2023-04-05T07:09:26.725Z,14.17
2023-04-05T07:11:48.180Z,12.33
2023-04-05T07:14:09.657Z,11.17
2023-04-05T07:16:31.263Z,13.10
2023-04-05T07:18:52.832Z,8.87
2023-04-05T07:21:14.649Z,7.87
2023-04-05T07:23:36.088Z,6.97
2023-04-05T07:26:08.366Z,9.73
2023-04-05T07:28:30.374Z,12.10
2023-04-05T07:30:52.050Z,12.13
2023-04-05T07:33:13.801Z,13.83
2023-04-05T07:35:35.386Z,21.70
2023-04-05T07:40:19.599Z,15.37
2023-04-05T07:42:41.291Z,13.57
2023-04-05T07:45:02.948Z,15.07
2023-04-05T07:47:24.585Z,15.97
2023-04-05T07:49:46.223Z,9.93
2023-04-05T07:52:07.728Z,9.87
2023-04-05T07:54:31.592Z,13.90
2023-04-05T07:56:55.346Z,9.83
2023-04-05T07:59:16.986Z,11.00
2023-04-05T08:01:38.465Z,9.40
2023-04-05T08:04:00.066Z,11.50
2023-04-05T08:06:21.818Z,8.30
2023-04-05T08:08:44.188Z,7.50
2023-04-05T08:11:05.786Z,6.63
2023-04-05T08:13:27.206Z,6.27
2023-04-05T08:15:48.688Z,8.40
2023-04-05T08:18:10.195Z,8.10
2023-04-05T08:20:31.742Z,6.27
2023-04-05T08:22:53.167Z,3.53
2023-04-05T08:25:14.709Z,4.37
2023-04-05T08:27:36.343Z,5.77
2023-04-05T08:29:57.895Z,3.97
2023-04-05T08:32:19.330Z,3.47
2023-04-05T08:34:41.964Z,4.73
2023-04-05T08:37:03.437Z,7.27
2023-04-05T08:39:24.866Z,5.53
2023-04-05T08:41:59.221Z,4.47
2023-04-05T08:44:22.705Z,6.73
2023-04-05T08:46:44.828Z,6.03
2023-04-05T08:49:08.137Z,7.07
2023-04-05T08:51:29.965Z,3.47
2023-04-05T08:53:52.109Z,6.60
2023-04-05T08:56:17.055Z,6.40
2023-04-05T08:58:39.379Z,4.63
2023-04-05T09:01:02.276Z,5.03
2023-04-05T09:03:28.627Z,8.07
2023-04-05T09:05:51.609Z,6.00
2023-04-05T09:08:13.600Z,6.23
2023-04-05T09:10:35.128Z,4.50
2023-04-05T09:12:56.691Z,6.50
2023-04-05T09:15:18.400Z,4.37
2023-04-05T09:17:41.886Z,12.57
2023-04-05T09:20:03.496Z,3.40
2023-04-05T09:22:24.962Z,4.13
2023-04-05T09:24:47.284Z,5.17
2023-04-05T09:27:11.389Z,6.23
2023-04-05T09:29:33.130Z,4.47
2023-04-05T09:31:54.723Z,3.50
2023-04-05T09:34:21.096Z,6.70
2023-04-05T09:36:45.261Z,3.93
2023-04-05T09:39:08.861Z,5.13
2023-04-05T09:41:30.415Z,3.67
2023-04-05T09:43:52.680Z,4.87
2023-04-05T09:46:34.388Z,4.97
2023-04-05T09:48:56.986Z,5.57
2023-04-05T09:51:18.879Z,4.33
2023-04-05T09:54:00.581Z,4.03
2023-04-05T09:56:22.030Z,4.13
2023-04-05T09:58:43.550Z,4.87
2023-04-05T10:01:16.289Z,5.00
2023-04-05T10:03:47.992Z,4.03
2023-04-05T10:06:09.626Z,3.03
2023-04-05T10:08:31.353Z,3.97
2023-04-05T10:10:54.869Z,3.57
2023-04-05T10:13:17.145Z,5.43
2023-04-05T10:15:39.357Z,4.73
2023-04-05T10:18:10.722Z,2.87
2023-04-05T10:20:36.316Z,5.30
2023-04-05T10:23:03.583Z,4.07
2023-04-05T10:25:45.089Z,2.87
2023-04-05T10:28:12.646Z,4.13
2023-04-05T10:30:44.010Z,4.30
2023-04-05T10:33:16.462Z,3.80
2023-04-05T10:36:03.687Z,3.27
2023-04-05T10:38:27.372Z,5.20
2023-04-05T10:40:53.773Z,6.83
2023-04-05T10:43:19.177Z,5.00
2023-04-05T10:45:42.029Z,5.47
2023-04-05T10:48:18.967Z,3.40
2023-04-05T10:50:41.587Z,3.47
2023-04-05T10:53:03.502Z,5.47
2023-04-05T10:55:25.313Z,4.67
2023-04-05T10:57:48.020Z,4.23
2023-04-05T11:00:13.132Z,4.70
2023-04-05T11:02:34.730Z,3.57
2023-04-05T11:04:57.151Z,6.53
2023-04-05T11:07:19.859Z,5.67
2023-04-05T11:10:01.802Z,3.57
2023-04-05T11:12:52.505Z,3.20
2023-04-05T11:15:25.853Z,3.80
2023-04-05T11:18:03.473Z,5.20
2023-04-05T11:20:25.133Z,4.97
2023-04-05T11:22:54.471Z,7.40
2023-04-05T11:25:24.988Z,3.60
2023-04-05T11:28:01.129Z,8.40
2023-04-05T11:30:53.043Z,4.07
2023-04-05T11:33:36.573Z,3.57
2023-04-05T11:36:04.841Z,3.83
2023-04-05T11:38:26.278Z,3.40
2023-04-05T11:40:47.789Z,3.80
2023-04-05T11:43:11.353Z,6.07
2023-04-05T11:45:34.507Z,3.53
2023-04-05T11:47:56.745Z,4.73
2023-04-05T11:50:18.379Z,4.30
2023-04-05T11:52:39.923Z,2.73
2023-04-05T11:55:03.451Z,3.50
2023-04-05T11:57:25.440Z,3.57
2023-04-05T11:59:47.142Z,4.63
2023-04-05T12:02:09.277Z,3.77
2023-04-05T12:04:30.984Z,3.90
2023-04-05T12:07:13.584Z,3.50
2023-04-05T12:09:35.010Z,3.63
2023-04-05T12:11:56.542Z,3.93
2023-04-05T12:14:17.988Z,4.60
2023-04-05T12:16:49.067Z,4.10
2023-04-05T12:19:10.676Z,4.47
2023-04-05T12:21:32.620Z,4.70
2023-04-05T12:23:54.719Z,4.27
2023-04-05T12:26:16.261Z,3.57
2023-04-05T12:28:51.913Z,3.53
2023-04-05T12:31:13.390Z,2.90
2023-04-05T12:33:37.363Z,4.37
2023-04-05T12:35:59.477Z,3.87
2023-04-05T12:38:21.005Z,5.63
2023-04-05T12:40:42.518Z,4.90
2023-04-05T12:43:08.861Z,4.63
2023-04-05T12:45:34.588Z,3.90
2023-04-05T12:48:00.310Z,3.13
2023-04-05T12:50:29.253Z,4.65
2023-04-05T12:52:54.326Z,4.22
2023-04-05T12:55:16.245Z,4.63
2023-04-05T12:57:37.930Z,3.63
2023-04-05T12:59:59.619Z,5.93
2023-04-05T13:02:21.263Z,3.17
2023-04-05T13:04:42.725Z,2.97
2023-04-05T13:07:04.167Z,4.25
2023-04-05T13:09:25.624Z,3.17
2023-04-05T13:11:47.163Z,3.67
2023-04-05T13:14:08.940Z,4.53
2023-04-05T13:16:30.771Z,4.25
2023-04-05T13:18:52.222Z,3.47
2023-04-05T13:21:13.671Z,3.92
2023-04-05T13:23:36.490Z,3.95
2023-04-05T13:25:57.942Z,3.15
2023-04-05T13:28:19.369Z,3.90
2023-04-05T13:30:40.958Z,3.75
2023-04-05T13:33:04.591Z,4.20
2023-04-05T13:35:26.329Z,3.22
2023-04-05T13:37:51.120Z,4.50
2023-04-05T13:40:12.726Z,5.05
2023-04-05T13:42:34.219Z,3.75
2023-04-05T13:44:55.831Z,3.40
2023-04-05T13:47:17.397Z,2.65
2023-04-05T13:49:38.843Z,3.28
2023-04-05T13:52:00.539Z,4.10
2023-04-05T13:54:22.002Z,3.28
2023-04-05T13:56:43.428Z,5.05
2023-04-05T13:59:05.130Z,3.67
2023-04-05T14:01:26.952Z,3.57
2023-04-05T14:03:48.679Z,4.47
2023-04-05T14:06:10.225Z,6.50
2023-04-05T14:08:31.688Z,2.43
2023-04-05T14:10:53.371Z,4.10
2023-04-05T14:13:17.565Z,3.10
2023-04-05T14:15:39.208Z,2.97
2023-04-05T14:18:02.071Z,3.20
2023-04-05T14:20:25.041Z,4.47
2023-04-05T14:22:46.569Z,3.70
2023-04-05T14:25:08.404Z,3.83
2023-04-05T14:27:29.902Z,4.37
2023-04-05T14:29:52.549Z,2.70
2023-04-05T14:32:13.983Z,3.57
2023-04-05T14:34:36.506Z,4.13
2023-04-05T14:37:00.067Z,4.18
2023-04-05T14:39:21.716Z,5.05
2023-04-05T14:41:44.073Z,4.85
2023-04-05T14:44:05.740Z,4.15
2023-04-05T14:46:27.221Z,3.47
2023-04-05T14:48:48.724Z,3.10
2023-04-05T14:51:10.748Z,3.50
2023-04-05T14:53:32.295Z,3.55
2023-04-05T14:55:53.728Z,3.58
2023-04-05T14:58:15.499Z,3.72
2023-04-05T15:00:37.058Z,3.97
2023-04-05T15:02:58.824Z,3.72
2023-04-05T15:05:20.623Z,5.13
2023-04-05T15:07:42.070Z,4.00
2023-04-05T15:10:04.174Z,4.53
2023-04-05T15:12:26.559Z,3.42
2023-04-05T15:14:50.698Z,4.13
2023-04-05T15:17:12.579Z,5.30
2023-04-05T15:19:35.568Z,3.47
2023-04-05T15:21:57.106Z,3.85
2023-04-05T15:24:18.591Z,3.63
2023-04-05T15:26:40.943Z,3.17
2023-04-05T15:29:02.469Z,3.65
2023-04-05T15:31:24.000Z,3.20
2023-04-05T15:33:45.521Z,5.22
2023-04-05T15:36:07.276Z,4.00
2023-04-05T15:38:28.748Z,4.18
2023-04-05T15:40:52.493Z,3.90
2023-04-05T15:43:14.095Z,6.25
2023-04-05T15:45:35.959Z,5.60
2023-04-05T15:47:57.601Z,4.18
2023-04-05T15:50:20.492Z,4.80
2023-04-05T15:52:42.011Z,8.52
2023-04-05T15:55:03.944Z,3.70
2023-04-05T15:57:25.479Z,4.28
2023-04-05T15:59:47.011Z,7.97
2023-04-05T16:02:09.430Z,8.57
2023-04-05T16:04:31.353Z,4.93
2023-04-05T16:06:52.799Z,7.38
2023-04-05T16:09:14.255Z,3.67
2023-04-05T16:11:36.079Z,4.18
2023-04-05T16:13:58.383Z,4.07
2023-04-05T16:16:29.908Z,4.72
2023-04-05T16:18:56.570Z,13.45
2023-04-05T16:21:18.309Z,4.10
2023-04-05T16:23:39.836Z,4.95
2023-04-05T16:26:01.297Z,8.50
2023-04-05T16:28:22.842Z,5.30
2023-04-05T16:30:47.122Z,5.50
2023-04-05T16:33:10.162Z,4.28
2023-04-05T16:35:31.787Z,4.47
2023-04-05T16:37:53.285Z,8.80
2023-04-05T16:40:14.771Z,6.23
2023-04-05T16:42:36.844Z,10.27
2023-04-05T16:44:58.268Z,6.40
2023-04-05T16:47:19.750Z,12.17
2023-04-05T16:49:41.178Z,6.93
2023-04-05T16:52:02.680Z,4.73
2023-04-05T16:54:24.182Z,6.80
2023-04-05T16:56:45.696Z,4.73
2023-04-05T16:59:09.367Z,4.90
2023-04-05T17:01:31.542Z,6.43
2023-04-05T17:03:53.091Z,5.30
2023-04-05T17:06:14.971Z,6.00
2023-04-05T17:08:36.428Z,4.97
2023-04-05T17:10:58.055Z,5.10
2023-04-05T17:13:19.693Z,4.70
2023-04-05T17:15:41.165Z,6.20
2023-04-05T17:18:02.702Z,10.20
2023-04-05T17:20:24.204Z,5.90
2023-04-05T17:22:45.757Z,10.83
2023-04-05T17:25:07.706Z,6.80
2023-04-05T17:27:29.187Z,10.37
2023-04-05T17:29:50.725Z,8.10
2023-04-05T17:32:12.249Z,8.77
2023-04-05T17:34:33.719Z,7.63
2023-04-05T17:36:55.477Z,8.80
2023-04-05T17:39:16.939Z,6.57
2023-04-05T17:41:38.534Z,6.30
2023-04-05T17:43:59.977Z,6.00
2023-04-05T17:46:33.992Z,7.33
2023-04-05T17:49:02.246Z,6.30
2023-04-05T17:51:23.893Z,7.60
2023-04-05T17:53:45.486Z,6.43
2023-04-05T17:56:07.015Z,7.33
2023-04-05T17:58:32.380Z,8.30
2023-04-05T18:00:53.832Z,10.53
2023-04-05T18:03:15.302Z,10.27
2023-04-05T18:05:37.022Z,23.10
2023-04-05T18:07:58.498Z,14.07
2023-04-05T18:10:23.571Z,9.37
2023-04-05T18:12:45.363Z,12.43
2023-04-05T18:15:07.416Z,7.93
2023-04-05T18:17:28.879Z,7.30
2023-04-05T18:19:50.777Z,7.80
2023-04-05T18:22:12.376Z,5.70
2023-04-05T18:24:33.912Z,5.73
2023-04-05T18:26:55.391Z,5.80
2023-04-05T18:29:16.907Z,7.10
2023-04-05T18:31:38.398Z,6.83
2023-04-05T18:34:05.909Z,5.90
2023-04-05T18:36:27.594Z,5.50
2023-04-05T18:38:49.031Z,6.93
2023-04-05T18:41:12.346Z,7.17
2023-04-05T18:43:33.823Z,7.63
2023-04-05T18:45:55.498Z,7.50
2023-04-05T18:48:17.141Z,11.67
2023-04-05T18:50:38.613Z,9.23
2023-04-05T18:53:00.526Z,7.03
2023-04-05T18:55:22.002Z,7.77
2023-04-05T18:57:43.462Z,6.07
2023-04-05T19:00:05.538Z,7.07
2023-04-05T19:02:27.446Z,6.37
2023-04-05T19:04:49.345Z,6.80
2023-04-05T19:07:10.968Z,7.50
2023-04-05T19:09:32.581Z,7.70
2023-04-05T19:11:54.045Z,6.90
2023-04-05T19:14:16.380Z,7.47
2023-04-05T19:16:37.924Z,7.97
2023-04-05T19:18:59.497Z,7.93
2023-04-05T19:21:21.233Z,7.50
2023-04-05T19:23:43.004Z,8.40
2023-04-05T19:26:04.588Z,7.53
2023-04-05T19:28:27.184Z,8.10
2023-04-05T19:30:48.660Z,8.33
2023-04-05T19:33:10.412Z,12.83
2023-04-05T19:35:32.162Z,15.80
2023-04-05T19:37:53.696Z,14.13
2023-04-05T19:40:15.554Z,8.80
2023-04-05T19:42:37.100Z,7.07
2023-04-05T19:44:58.921Z,6.63
2023-04-05T19:47:21.592Z,7.53
2023-04-05T19:49:43.165Z,7.37
2023-04-05T19:52:08.413Z,6.40
2023-04-05T19:54:29.858Z,7.17
2023-04-05T19:56:51.337Z,5.63
2023-04-05T19:59:12.723Z,7.63
2023-04-05T20:01:36.733Z,8.17
2023-04-05T20:03:58.647Z,9.13
2023-04-05T20:06:20.324Z,7.70
2023-04-05T20:08:44.162Z,5.50
2023-04-05T20:11:08.101Z,6.40
2023-04-05T20:13:29.576Z,6.47
2023-04-05T20:15:51.291Z,7.27
2023-04-05T20:18:21.202Z,7.87
2023-04-05T20:20:44.217Z,9.77
2023-04-05T20:23:08.490Z,9.30
2023-04-05T20:25:37.406Z,7.77
2023-04-05T20:27:58.837Z,9.07
2023-04-05T20:30:20.304Z,8.37
2023-04-05T20:32:41.812Z,11.77
2023-04-05T20:35:08.651Z,12.87
2023-04-05T20:37:30.242Z,16.63
2023-04-05T20:39:51.796Z,14.77
2023-04-05T20:42:13.525Z,11.00
2023-04-05T20:44:34.997Z,13.33
2023-04-05T20:46:57.815Z,13.13
2023-04-05T20:49:24.200Z,10.60
2023-04-05T20:51:46.603Z,6.93
2023-04-05T20:54:08.030Z,7.00
2023-04-05T20:56:29.515Z,8.10
2023-04-05T20:58:51.394Z,8.93
2023-04-05T21:01:12.974Z,9.97
2023-04-05T21:03:37.038Z,9.27
2023-04-05T21:05:59.893Z,9.00
2023-04-05T21:08:21.369Z,10.70
2023-04-05T21:10:42.891Z,11.73
2023-04-05T21:13:04.434Z,12.10
2023-04-05T21:15:31.399Z,8.90
2023-04-05T21:17:52.956Z,8.07
2023-04-05T21:20:14.441Z,9.50
2023-04-05T21:22:36.083Z,9.03
2023-04-05T21:24:57.557Z,10.20
2023-04-05T21:27:18.991Z,9.60
2023-04-05T21:29:40.467Z,9.77
2023-04-05T21:32:01.908Z,10.93
2023-04-05T21:34:23.353Z,9.40
2023-04-05T21:36:44.781Z,10.73
2023-04-05T21:39:06.410Z,6.90
2023-04-05T21:41:28.048Z,8.40
2023-04-05T21:43:49.464Z,14.17
2023-04-05T21:46:11.887Z,9.97
2023-04-05T21:48:33.412Z,8.73
2023-04-05T21:50:54.847Z,10.80
2023-04-05T21:53:16.280Z,11.37
2023-04-05T21:55:37.702Z,11.90
2023-04-05T21:57:59.126Z,9.60
2023-04-05T22:00:20.852Z,8.73
2023-04-05T22:02:42.319Z,9.77
2023-04-05T22:05:05.482Z,10.03
2023-04-05T22:07:27.414Z,8.50
2023-04-05T22:09:48.934Z,9.10
2023-04-05T22:12:10.918Z,10.73
2023-04-05T22:14:32.378Z,9.27
2023-04-05T22:16:54.561Z,11.23
2023-04-05T22:19:16.419Z,9.80
2023-04-05T22:21:38.982Z,9.80
2023-04-05T22:24:00.594Z,8.70
2023-04-05T22:26:22.320Z,9.53
2023-04-05T22:28:43.778Z,11.63
2023-04-05T22:31:05.255Z,9.60
2023-04-05T22:33:27.275Z,10.73
2023-04-05T22:35:48.747Z,9.40
2023-04-05T22:38:10.376Z,13.97
2023-04-05T22:40:31.896Z,8.70
2023-04-05T22:42:54.086Z,8.27
2023-04-05T22:45:18.394Z,8.23
2023-04-05T22:47:39.886Z,10.07
2023-04-05T22:50:01.586Z,8.37
2023-04-05T22:52:23.054Z,11.33
2023-04-05T22:54:44.496Z,8.50
2023-04-05T22:57:06.258Z,10.20
2023-04-05T22:59:33.156Z,11.50
2023-04-05T23:01:54.682Z,10.53
2023-04-05T23:04:16.230Z,8.43
2023-04-05T23:06:37.685Z,9.37
2023-04-05T23:08:59.212Z,8.73
2023-04-05T23:11:21.172Z,8.27
2023-04-05T23:13:42.667Z,11.53
2023-04-05T23:16:04.561Z,9.53
2023-04-05T23:18:26.308Z,7.73
2023-04-05T23:20:48.089Z,10.10
2023-04-05T23:23:09.495Z,10.40
2023-04-05T23:25:31.065Z,10.77
2023-04-05T23:27:54.403Z,9.40
2023-04-05T23:30:15.967Z,10.53
2023-04-05T23:32:37.430Z,10.10
2023-04-05T23:34:58.895Z,11.63
2023-04-05T23:37:20.416Z,8.80
2023-04-05T23:39:42.108Z,10.17
2023-04-05T23:42:04.716Z,8.43
2023-04-05T23:44:26.214Z,9.90
2023-04-05T23:46:47.742Z,9.93
2023-04-05T23:49:09.379Z,7.97
2023-04-05T23:51:31.835Z,8.93
2023-04-05T23:53:53.549Z,11.33
2023-04-05T23:56:15.578Z,9.27
2023-04-05T23:58:37.052Z,9.27
